Overview Statistics Trail Chart Weather Telemetry Raw packets
 

This is the latest recevied weather packets stored in our database for station/object KM5VY. If no packets are shown the sender has not sent any weather packets the latest 10 day(s).

<< 31 32 33 34 35 36 37 >>
Time Temp. Humidity Pressure Rain* Wind** Luminosity Snow
1788226040 19.44° C 64% 1025.7 hPa 0 mm - - -
1788225439 19.44° C 62% 1025.1 hPa 0 mm - - -
1788224838 19.44° C 62% 1024.7 hPa 0 mm - - -
1788224237 20° C 62% 1024.7 hPa 0 mm - - -
1788223636 20° C 62% 1024.4 hPa 0 mm - - -
1788223039 20° C 61% 1024.4 hPa 0 mm - - -
1788222434 20° C 60% 1024.4 hPa 0 mm - - -
1788221833 20° C 58% 1023.7 hPa 0 mm - - -
1788221332 20° C 58% 1023.4 hPa 0 mm - - -
1788220731 20° C 55% 1023 hPa 0 mm - - -
1788220130 20.56° C 53% 1024 hPa 0 mm - - -
1788219529 21.11° C 52% 1024.4 hPa 0 mm - - -
1788218928 21.67° C 50% 1024 hPa 0 mm - - -
1788218327 22.78° C 47% 1024.7 hPa 0 mm - - -
1788217726 25° C 46% 1024.7 hPa 0 mm - - -
1788217125 27.78° C 41% 1024 hPa 0 mm - - -
1788216524 29.44° C 33% 1023 hPa 0 mm - - -
1788215923 30.56° C 32% 1022.7 hPa 0 mm - - -
1788215322 31.11° C 32% 1022 hPa 0 mm - - -
1788214721 31.11° C 31% 1022 hPa 0 mm - - -
1788214120 31.11° C 31% 1022.3 hPa 0 mm - - -
1788213519 31.11° C 31% 1022.3 hPa 0 mm - - -
1788212918 31.67° C 31% 1022.3 hPa 0 mm - - -
1788212317 31.67° C 32% 1022.3 hPa 0 mm - - -
1788211716 31.67° C 32% 1023 hPa 0 mm - - -

* Rain latest hour (hover to see other rain measurements)
** Current wind speed in m/s (hover to see current wind gust speed)